Terminal Aerodrome Forecast
Issued by NWS

Home | Current Version | Previous Version | Text Only | Print | Product List | Glossary On
Versions: 1 2 3 4 5 6 7 8 9 10 11 12 13 14 15 16 17 18 19 20 21 22 23 24 25 26 27 28 29 30 31 32 33
000
FTUS45 KGJT 311124
TAFEGE
TAF
KEGE 311124Z 3112/0112 00000KT P6SM SCT110 BKN150
     FM311500 23009KT P6SM SCT110 BKN150
     FM311900 24020G32KT P6SM VCTS SCT100CB BKN150
     FM010200 27010KT P6SM FEW110
     FM010600 16005KT P6SM FEW110
      AMD LTD TO CLD VIS AND WIND TIL 311300=

USA.gov is the U.S. government's official web portal to all federal, state and local government web resources and services.